Time;durP1;ratioP1;P1;durP2;ratioP2;P2;SDS_P1;SDS_P2;PMS_P1;PMS_P2;Temp;Humidity;BMP_temperature;BMP_pressure;BME280_temperature;BME280_humidity;BME280_pressure;Samples;Min_cycle;Max_cycle;Signal;HPM_P1;HPM_P2
2023/04/22 00:00:36;;;;;;;5.80;5.50;;;15.40;50.30;;;;;;20599;6816;306523;-77
2023/04/22 00:03:02;;;;;;;5.62;5.32;;;15.50;50.20;;;;;;20808;6816;117761;-76
2023/04/22 00:05:27;;;;;;;5.73;5.40;;;15.40;50.60;;;;;;20581;6816;282020;-76
2023/04/22 00:07:53;;;;;;;5.37;4.97;;;15.40;50.50;;;;;;20787;6817;117836;-77
2023/04/22 00:10:19;;;;;;;5.20;4.90;;;15.40;51.00;;;;;;20804;6817;117162;-76
2023/04/22 00:12:44;;;;;;;5.23;4.83;;;15.10;51.40;;;;;;20804;6817;117017;-75
2023/04/22 00:15:10;;;;;;;5.80;5.50;;;14.80;51.80;;;;;;20600;6817;278437;-76
2023/04/22 00:17:36;;;;;;;5.50;5.10;;;15.00;51.40;;;;;;20806;6817;117050;-76
2023/04/22 00:20:03;;;;;;;5.50;5.20;;;14.90;51.60;;;;;;20574;6817;281828;-76
2023/04/22 00:22:28;;;;;;;5.47;5.17;;;15.10;51.90;;;;;;20813;6817;117429;-76
2023/04/22 00:24:55;;;;;;;5.93;5.50;;;15.00;51.30;;;;;;20598;6817;277449;-76
2023/04/22 00:27:21;;;;;;;5.85;5.45;;;15.10;50.90;;;;;;20601;6817;307484;-76
2023/04/22 00:29:47;;;;;;;5.53;5.12;;;15.40;50.20;;;;;;20804;6817;119953;-76
2023/04/22 00:32:14;;;;;;;5.27;4.97;;;15.00;51.00;;;;;;20817;6817;117813;-76
2023/04/22 00:34:39;;;;;;;5.60;5.30;;;14.90;50.90;;;;;;20806;6817;121256;-76
2023/04/22 00:37:05;;;;;;;5.10;4.67;;;14.80;51.60;;;;;;20806;6817;117310;-75
2023/04/22 00:39:31;;;;;;;5.60;5.20;;;14.60;51.90;;;;;;20590;6817;311178;-76
2023/04/22 00:41:56;;;;;;;5.50;5.20;;;14.70;51.40;;;;;;20787;6817;117157;-75
2023/04/22 00:44:22;;;;;;;4.60;4.37;;;14.60;52.10;;;;;;20758;6817;117691;-77
2023/04/22 00:46:48;;;;;;;5.18;4.87;;;14.50;51.70;;;;;;20580;6817;306908;-78
2023/04/22 00:49:14;;;;;;;5.60;5.20;;;14.80;51.20;;;;;;20594;6817;336066;-75
2023/04/22 00:51:40;;;;;;;5.70;5.20;;;14.90;50.70;;;;;;20790;6817;129978;-77
2023/04/22 00:54:05;;;;;;;4.67;4.37;;;14.90;50.70;;;;;;20813;6817;117486;-76
2023/04/22 00:56:31;;;;;;;5.25;4.95;;;14.70;51.20;;;;;;20601;6817;285513;-75
2023/04/22 00:58:57;;;;;;;5.17;4.77;;;14.80;50.60;;;;;;20805;6817;117052;-76
2023/04/22 01:01:23;;;;;;;4.60;4.30;;;14.60;51.60;;;;;;20807;6817;117096;-76
2023/04/22 01:03:48;;;;;;;4.72;4.43;;;14.50;51.50;;;;;;20573;6817;341814;-75
2023/04/22 01:06:15;;;;;;;4.63;4.23;;;14.70;51.40;;;;;;20804;6817;123373;-75
2023/04/22 01:08:40;;;;;;;5.12;4.82;;;14.70;51.40;;;;;;20564;6815;336752;-76
2023/04/22 01:11:06;;;;;;;4.93;4.63;;;14.80;50.30;;;;;;20601;6816;307374;-75
2023/04/22 01:13:31;;;;;;;4.50;4.23;;;15.10;49.80;;;;;;20802;6816;116982;-75
2023/04/22 01:15:58;;;;;;;4.17;3.90;;;14.80;50.70;;;;;;20790;6816;188485;-75
2023/04/22 01:18:24;;;;;;;4.30;4.10;;;14.90;48.50;;;;;;20593;6817;307705;-75
2023/04/22 01:20:50;;;;;;;4.23;3.90;;;14.80;48.40;;;;;;20801;6817;123262;-75
2023/04/22 01:23:22;;;;;;;4.37;4.07;;;14.80;49.00;;;;;;20591;6817;336417;-75
2023/04/22 01:25:47;;;;;;;4.00;3.80;;;14.90;47.60;;;;;;20789;6817;118381;-76
2023/04/22 01:28:13;;;;;;;4.32;4.03;;;14.80;48.30;;;;;;20808;6817;118145;-75
2023/04/22 01:30:39;;;;;;;3.47;3.20;;;14.40;49.50;;;;;;20804;6817;117266;-75
2023/04/22 01:33:05;;;;;;;3.67;3.47;;;14.40;49.50;;;;;;20590;6817;277823;-75
2023/04/22 01:35:35;;;;;;;3.70;3.50;;;14.60;48.30;;;;;;20594;6817;307349;-75
2023/04/22 01:37:56;;;;;;;3.60;3.37;;;15.00;48.30;;;;;;20771;6817;117649;-75
2023/04/22 01:40:21;;;;;;;3.63;3.33;;;14.90;48.30;;;;;;20815;6817;117653;-75
2023/04/22 01:42:47;;;;;;;3.30;3.10;;;14.70;49.10;;;;;;20811;6817;117380;-75
2023/04/22 01:45:13;;;;;;;3.27;2.97;;;14.50;49.40;;;;;;20811;6817;117664;-78
2023/04/22 01:47:39;;;;;;;3.30;3.10;;;14.40;49.90;;;;;;20785;6817;117305;-76
2023/04/22 01:50:05;;;;;;;4.80;3.23;;;14.30;50.10;;;;;;20813;6817;117261;-75
2023/04/22 01:52:31;;;;;;;3.40;3.10;;;14.00;50.60;;;;;;20802;6817;117295;-75
2023/04/22 01:54:56;;;;;;;3.30;3.10;;;14.00;50.60;;;;;;20806;6817;117260;-75
2023/04/22 01:57:22;;;;;;;3.55;3.25;;;14.00;50.90;;;;;;20591;6817;307558;-76
2023/04/22 01:59:48;;;;;;;3.45;3.15;;;14.30;50.40;;;;;;20791;6817;117281;-75
2023/04/22 02:02:14;;;;;;;3.75;3.55;;;14.30;50.40;;;;;;20593;6817;330347;-75
2023/04/22 02:04:40;;;;;;;3.47;3.28;;;14.50;48.90;;;;;;20813;6817;123148;-75
2023/04/22 02:07:05;;;;;;;3.00;2.90;;;14.50;49.20;;;;;;20800;6817;117499;-75
2023/04/22 02:09:31;;;;;;;3.08;2.87;;;14.40;49.70;;;;;;20802;6817;117075;-75
2023/04/22 02:11:56;;;;;;;3.40;3.20;;;14.20;50.00;;;;;;20576;6817;285963;-75
2023/04/22 02:14:22;;;;;;;3.33;3.12;;;14.40;48.00;;;;;;20810;6817;117739;-75
2023/04/22 02:16:47;;;;;;;3.20;2.90;;;14.40;48.40;;;;;;20809;6817;117584;-75
2023/04/22 02:19:13;;;;;;;3.40;3.20;;;14.20;49.00;;;;;;20599;6815;304373;-75
2023/04/22 02:21:39;;;;;;;3.40;3.20;;;14.40;48.50;;;;;;20783;6816;123563;-75
2023/04/22 02:24:04;;;;;;;3.70;3.40;;;14.40;48.90;;;;;;20600;6816;336160;-75
2023/04/22 02:26:30;;;;;;;3.77;3.43;;;14.50;48.90;;;;;;20597;6816;277950;-75
2023/04/22 02:28:55;;;;;;;3.45;3.25;;;14.80;48.20;;;;;;20601;6816;312300;-76
2023/04/22 02:31:21;;;;;;;3.30;3.10;;;14.90;47.60;;;;;;20809;6817;117169;-75
2023/04/22 02:33:46;;;;;;;3.60;3.40;;;14.80;48.30;;;;;;20585;6817;277690;-75
2023/04/22 02:36:12;;;;;;;3.13;2.97;;;14.80;48.00;;;;;;20812;6817;117858;-78
2023/04/22 02:38:38;;;;;;;3.47;3.17;;;14.30;49.10;;;;;;20814;6817;117292;-76
2023/04/22 02:41:05;;;;;;;4.03;2.97;;;14.00;49.70;;;;;;20809;6817;116992;-75
2023/04/22 02:43:30;;;;;;;4.20;3.37;;;14.00;49.70;;;;;;20809;6817;117644;-76
2023/04/22 02:45:56;;;;;;;3.70;3.50;;;13.80;50.10;;;;;;20571;6817;277453;-76
2023/04/22 02:48:22;;;;;;;3.60;3.40;;;14.30;48.80;;;;;;20602;6817;308392;-75
2023/04/22 02:50:48;;;;;;;3.78;3.50;;;14.50;48.20;;;;;;20594;6817;340347;-75
2023/04/22 02:53:14;;;;;;;3.53;3.33;;;14.50;48.20;;;;;;20803;6817;117223;-75
2023/04/22 02:55:40;;;;;;;3.90;3.60;;;14.40;48.50;;;;;;20580;6817;310470;-75
2023/04/22 02:58:06;;;;;;;3.40;3.20;;;14.40;48.50;;;;;;20801;6817;117816;-75
2023/04/22 03:00:31;;;;;;;3.58;3.30;;;14.20;49.10;;;;;;20599;6817;277180;-76
2023/04/22 03:02:58;;;;;;;3.50;3.30;;;14.00;49.40;;;;;;20810;6817;117171;-75
2023/04/22 03:05:23;;;;;;;3.50;3.30;;;14.00;49.40;;;;;;20804;6817;118324;-76
2023/04/22 03:07:49;;;;;;;4.40;4.00;;;13.70;50.00;;;;;;20578;6817;277775;-76
2023/04/22 03:10:14;;;;;;;4.97;3.83;;;13.80;50.70;;;;;;20594;6817;337816;-75
2023/04/22 03:12:40;;;;;;;6.63;5.90;;;14.00;49.80;;;;;;20806;6817;117628;-75
2023/04/22 03:15:06;;;;;;;9.75;8.95;;;13.90;50.10;;;;;;20807;6817;117740;-76
2023/04/22 03:17:31;;;;;;;4.37;4.07;;;13.50;50.70;;;;;;20806;6817;117480;-76
2023/04/22 03:19:57;;;;;;;4.80;4.50;;;13.20;51.40;;;;;;20570;6817;338523;-76
2023/04/22 03:22:23;;;;;;;4.90;4.37;;;13.30;51.90;;;;;;20815;6817;117612;-75
2023/04/22 03:24:49;;;;;;;4.70;4.40;;;13.20;51.90;;;;;;20609;6817;306499;-75
2023/04/22 03:27:14;;;;;;;5.00;4.70;;;13.40;51.60;;;;;;20594;6817;307437;-76
2023/04/22 03:29:40;;;;;;;5.13;4.67;;;13.60;51.10;;;;;;20788;6817;123057;-76
2023/04/22 03:32:06;;;;;;;5.03;4.72;;;13.50;51.30;;;;;;20595;6815;334491;-76
2023/04/22 03:34:32;;;;;;;4.57;4.20;;;13.50;51.20;;;;;;20810;6816;117006;-76
2023/04/22 03:36:58;;;;;;;5.00;4.60;;;13.40;51.60;;;;;;20806;6816;116977;-76
2023/04/22 03:39:24;;;;;;;5.30;4.90;;;13.10;52.10;;;;;;20591;6816;311645;-75
2023/04/22 03:41:49;;;;;;;4.63;4.03;;;13.20;52.70;;;;;;20789;6817;117219;-76
2023/04/22 03:44:15;;;;;;;4.43;4.12;;;13.20;52.40;;;;;;20807;6817;117185;-75
2023/04/22 03:46:40;;;;;;;4.93;4.63;;;12.90;52.70;;;;;;20606;6817;279877;-76
2023/04/22 03:49:07;;;;;;;4.53;4.22;;;13.10;52.80;;;;;;20806;6817;117105;-75
2023/04/22 03:51:32;;;;;;;4.87;4.30;;;13.10;52.80;;;;;;20812;6817;123450;-76
2023/04/22 03:53:58;;;;;;;4.87;4.47;;;12.90;53.20;;;;;;20603;6817;277915;-75
2023/04/22 03:56:24;;;;;;;4.75;4.40;;;13.40;52.00;;;;;;20608;6817;306169;-75
2023/04/22 03:58:50;;;;;;;4.90;4.60;;;13.70;51.60;;;;;;20602;6817;311661;-76
2023/04/22 04:01:16;;;;;;;4.87;4.57;;;13.70;51.60;;;;;;20597;6817;312194;-76
2023/04/22 04:03:41;;;;;;;5.15;4.78;;;13.90;51.20;;;;;;20713;6817;69502;-76
2023/04/22 04:06:08;;;;;;;4.70;4.30;;;13.40;52.20;;;;;;20831;6817;67971;-75
2023/04/22 04:08:33;;;;;;;4.63;4.30;;;13.40;52.20;;;;;;20832;6817;69890;-76
2023/04/22 04:10:59;;;;;;;4.87;4.57;;;13.10;52.80;;;;;;20624;6817;277032;-76
2023/04/22 04:13:25;;;;;;;4.57;4.27;;;13.20;52.20;;;;;;20814;6817;123385;-75
2023/04/22 04:15:51;;;;;;;5.13;4.73;;;13.30;52.10;;;;;;20572;6817;336459;-76
2023/04/22 04:18:17;;;;;;;5.20;4.60;;;13.30;52.10;;;;;;20802;6817;117844;-75
2023/04/22 04:20:42;;;;;;;5.07;4.67;;;13.30;52.40;;;;;;20592;6817;306973;-76
2023/04/22 04:23:08;;;;;;;4.97;4.67;;;13.40;52.00;;;;;;20812;6817;117559;-74
2023/04/22 04:25:37;;;;;;;4.80;4.60;;;13.30;52.20;;;;;;20599;6817;278086;-74
2023/04/22 04:28:10;;;;;;;4.30;4.10;;;13.30;52.20;;;;;;20739;6817;119868;-74
2023/04/22 04:30:32;;;;;;;4.43;4.20;;;13.30;52.20;;;;;;20739;6817;117686;-74
2023/04/22 04:32:58;;;;;;;4.73;4.43;;;12.90;53.40;;;;;;20788;6817;117647;-74
2023/04/22 04:35:23;;;;;;;5.37;5.00;;;12.90;53.30;;;;;;20589;6817;308080;-74
2023/04/22 04:37:49;;;;;;;4.93;4.53;;;13.00;52.90;;;;;;20787;6817;146836;-76
2023/04/22 04:40:14;;;;;;;4.93;4.62;;;13.00;53.10;;;;;;20811;6817;117084;-75
2023/04/22 04:42:41;;;;;;;4.65;4.40;;;12.80;53.50;;;;;;20817;6815;117199;-75
2023/04/22 04:45:06;;;;;;;5.13;4.73;;;12.70;54.00;;;;;;20801;6816;117160;-75
2023/04/22 04:47:32;;;;;;;4.57;4.27;;;12.50;54.30;;;;;;20779;6816;117356;-76
2023/04/22 04:49:57;;;;;;;5.77;5.37;;;12.40;54.60;;;;;;20564;6816;307912;-74
2023/04/22 04:52:23;;;;;;;5.17;4.87;;;12.70;54.10;;;;;;20591;6816;278850;-73
2023/04/22 04:54:48;;;;;;;5.47;4.97;;;13.10;54.10;;;;;;20589;6817;311927;-77
2023/04/22 04:57:14;;;;;;;5.20;4.70;;;13.40;52.50;;;;;;20796;6817;121495;-76
2023/04/22 04:59:39;;;;;;;5.07;4.77;;;13.30;52.80;;;;;;20576;6817;306911;-74
2023/04/22 05:02:05;;;;;;;5.37;4.97;;;13.40;52.50;;;;;;20594;6817;307918;-75
2023/04/22 05:04:30;;;;;;;4.73;4.43;;;13.60;52.10;;;;;;20811;6817;117568;-73
2023/04/22 05:06:56;;;;;;;5.47;5.17;;;13.50;52.50;;;;;;20584;6817;306419;-74
2023/04/22 05:09:22;;;;;;;5.40;5.00;;;13.50;52.30;;;;;;20584;6817;278384;-75
2023/04/22 05:11:48;;;;;;;5.10;4.80;;;13.90;51.40;;;;;;20569;6817;311476;-73
2023/04/22 05:14:14;;;;;;;5.20;4.80;;;13.90;51.40;;;;;;20788;6817;117682;-74
2023/04/22 05:16:39;;;;;;;5.17;4.77;;;13.80;51.80;;;;;;20581;6817;277962;-75
2023/04/22 05:19:05;;;;;;;5.10;4.77;;;13.80;51.70;;;;;;20582;6817;334628;-75
2023/04/22 05:21:31;;;;;;;5.12;4.72;;;13.80;52.20;;;;;;20797;6817;117553;-75
2023/04/22 05:23:57;;;;;;;6.07;4.10;;;13.70;51.90;;;;;;20770;6817;117304;-73
2023/04/22 05:26:22;;;;;;;6.23;4.47;;;13.50;52.60;;;;;;20801;6817;117380;-73
2023/04/22 05:28:48;;;;;;;4.67;4.37;;;13.20;53.20;;;;;;20799;6817;117628;-74
2023/04/22 05:31:14;;;;;;;4.93;4.53;;;12.90;54.10;;;;;;20804;6817;117915;-74
2023/04/22 05:33:41;;;;;;;5.27;4.90;;;12.80;54.30;;;;;;20781;6817;117173;-74
2023/04/22 05:36:06;;;;;;;5.30;4.80;;;12.80;54.30;;;;;;20585;6817;306158;-74
2023/04/22 05:38:33;;;;;;;4.60;4.30;;;13.00;53.30;;;;;;20801;6817;117068;-73
2023/04/22 05:40:59;;;;;;;4.57;4.27;;;13.10;53.50;;;;;;20784;6817;123323;-74
2023/04/22 05:43:24;;;;;;;5.07;4.68;;;13.10;54.00;;;;;;20564;6817;315481;-74
2023/04/22 05:45:51;;;;;;;5.27;4.77;;;13.70;52.30;;;;;;20524;6817;335355;-74
2023/04/22 05:48:16;;;;;;;5.03;4.72;;;13.60;52.20;;;;;;20590;6817;336519;-73
2023/04/22 05:50:42;;;;;;;4.63;4.33;;;14.00;51.70;;;;;;20812;6817;117098;-73
2023/04/22 05:53:07;;;;;;;4.77;4.47;;;14.00;52.10;;;;;;20595;6817;282423;-74
2023/04/22 05:55:33;;;;;;;4.30;4.00;;;14.10;51.30;;;;;;20800;6815;117015;-75
2023/04/22 05:57:59;;;;;;;4.80;4.40;;;14.10;51.80;;;;;;20568;6816;336488;-75
2023/04/22 06:00:24;;;;;;;3.87;3.67;;;14.30;51.40;;;;;;20794;6816;116971;-74
2023/04/22 06:02:50;;;;;;;3.93;3.73;;;14.10;52.50;;;;;;20796;6816;117193;-73
2023/04/22 06:05:16;;;;;;;4.63;4.17;;;14.10;52.40;;;;;;20593;6817;280892;-74
2023/04/22 06:07:42;;;;;;;4.55;4.15;;;14.30;52.10;;;;;;20566;6817;307056;-74
2023/04/22 06:10:07;;;;;;;4.53;4.13;;;14.70;51.60;;;;;;20591;6817;280693;-76
2023/04/22 06:12:33;;;;;;;4.60;4.20;;;15.00;51.00;;;;;;20577;6817;306550;-75
2023/04/22 06:14:59;;;;;;;5.03;4.50;;;15.30;50.30;;;;;;20582;6817;277879;-76
2023/04/22 06:17:25;;;;;;;4.60;4.20;;;15.70;49.30;;;;;;20592;6817;277533;-76
2023/04/22 06:19:50;;;;;;;4.43;4.10;;;15.70;49.30;;;;;;20782;6817;117186;-75
2023/04/22 06:22:17;;;;;;;3.83;3.63;;;15.40;50.80;;;;;;20801;6817;121112;-76
2023/04/22 06:24:42;;;;;;;4.07;3.70;;;15.40;50.80;;;;;;20798;6817;119819;-77
2023/04/22 06:27:09;;;;;;;4.20;3.90;;;15.30;51.10;;;;;;20590;6817;307463;-75
2023/04/22 06:29:35;;;;;;;4.50;4.20;;;15.70;49.90;;;;;;20571;6817;336936;-74
2023/04/22 06:32:02;;;;;;;4.37;3.90;;;15.70;49.90;;;;;;20541;6817;307400;-73
2023/04/22 06:34:26;;;;;;;5.00;4.40;;;16.00;49.00;;;;;;20581;6817;277450;-73
2023/04/22 06:36:53;;;;;;;3.87;3.67;;;16.30;48.40;;;;;;20805;6817;117054;-73
2023/04/22 06:39:17;;;;;;;19.80;17.27;;;16.20;49.00;;;;;;20804;6817;118546;-73
2023/04/22 06:41:43;;;;;;;13.95;12.52;;;16.00;49.60;;;;;;20578;6817;302812;-73
2023/04/22 06:44:10;;;;;;;7.60;7.00;;;16.00;48.50;;;;;;20799;6817;117653;-73
2023/04/22 06:46:35;;;;;;;7.77;7.17;;;16.00;48.80;;;;;;20589;6817;317832;-74
2023/04/22 06:49:00;;;;;;;5.40;5.10;;;16.20;47.90;;;;;;20798;6817;117907;-73
2023/04/22 06:51:26;;;;;;;6.40;5.90;;;16.10;48.50;;;;;;20585;6817;311888;-73
2023/04/22 06:53:52;;;;;;;4.60;4.30;;;16.20;47.30;;;;;;20562;6817;307471;-75
2023/04/22 06:56:17;;;;;;;4.90;4.50;;;16.50;46.60;;;;;;20571;6817;337302;-73
2023/04/22 06:58:43;;;;;;;4.60;4.30;;;16.70;46.40;;;;;;20564;6817;307015;-73
2023/04/22 07:01:08;;;;;;;4.05;3.85;;;16.90;46.10;;;;;;20774;6817;117192;-73
2023/04/22 07:03:34;;;;;;;4.00;3.75;;;16.80;47.00;;;;;;20573;6817;313163;-73
2023/04/22 07:06:00;;;;;;;4.47;4.07;;;16.80;46.60;;;;;;20775;6815;122800;-73
2023/04/22 07:08:25;;;;;;;4.43;4.12;;;16.70;47.60;;;;;;20588;6816;277405;-74
2023/04/22 07:10:51;;;;;;;4.30;3.97;;;16.80;47.90;;;;;;20800;6816;118046;-74
2023/04/22 07:13:17;;;;;;;7.05;6.53;;;16.80;47.90;;;;;;20531;6816;341299;-74
2023/04/22 07:15:45;;;;;;;4.80;4.40;;;16.90;47.50;;;;;;20757;6816;117441;-76
2023/04/22 07:18:08;;;;;;;8.03;7.43;;;16.90;48.30;;;;;;20791;6817;117661;-76
2023/04/22 07:20:35;;;;;;;8.40;7.62;;;16.60;49.30;;;;;;20803;6817;117817;-77
2023/04/22 07:23:00;;;;;;;4.33;4.03;;;16.60;49.30;;;;;;20801;6817;117065;-74
2023/04/22 07:25:26;;;;;;;7.30;6.68;;;16.50;49.70;;;;;;20596;6817;283791;-75
2023/04/22 07:27:51;;;;;;;7.40;6.85;;;16.70;47.70;;;;;;20577;6817;306010;-74
2023/04/22 07:30:17;;;;;;;6.70;6.10;;;17.10;47.20;;;;;;20807;6817;117231;-74
2023/04/22 07:32:43;;;;;;;4.57;4.20;;;17.20;47.90;;;;;;20605;6817;278492;-73
2023/04/22 07:35:08;;;;;;;4.30;3.90;;;17.40;47.60;;;;;;20810;6817;117292;-75
2023/04/22 07:37:34;;;;;;;5.17;4.47;;;17.40;47.30;;;;;;20586;6817;307117;-74
2023/04/22 07:40:00;;;;;;;5.47;3.83;;;17.40;47.30;;;;;;20782;6817;117084;-76
2023/04/22 07:42:26;;;;;;;4.37;3.97;;;17.30;47.80;;;;;;20591;6817;278360;-76
2023/04/22 07:44:52;;;;;;;4.37;4.07;;;17.70;46.90;;;;;;20588;6817;307777;-76
2023/04/22 07:47:17;;;;;;;4.27;3.97;;;17.70;46.90;;;;;;20590;6817;307675;-75
2023/04/22 07:49:44;;;;;;;4.07;3.78;;;17.90;46.30;;;;;;20786;6817;117221;-76
2023/04/22 07:52:09;;;;;;;4.10;3.65;;;17.80;47.10;;;;;;20593;6817;277846;-77
2023/04/22 07:54:34;;;;;;;5.68;5.20;;;17.80;46.30;;;;;;20594;6817;279650;-75
2023/04/22 07:57:00;;;;;;;4.43;4.10;;;18.10;46.40;;;;;;20810;6817;117239;-75
2023/04/22 07:59:26;;;;;;;5.23;4.83;;;17.80;48.00;;;;;;20804;6817;116965;-75
2023/04/22 08:01:52;;;;;;;7.00;6.45;;;17.90;47.50;;;;;;20552;6817;340534;-75
2023/04/22 08:04:18;;;;;;;4.83;4.50;;;17.90;47.50;;;;;;20788;6817;117552;-74
2023/04/22 08:06:44;;;;;;;4.87;4.47;;;18.00;48.30;;;;;;20212;6817;316706;-79
2023/04/22 08:09:09;;;;;;;5.90;5.37;;;18.20;47.10;;;;;;20599;6817;278913;-76
2023/04/22 08:11:35;;;;;;;4.90;4.60;;;18.50;46.70;;;;;;20797;6817;116890;-76
2023/04/22 08:14:00;;;;;;;4.20;3.90;;;18.60;47.40;;;;;;20570;6817;277049;-76
2023/04/22 08:16:27;;;;;;;4.20;3.90;;;18.80;46.80;;;;;;20771;6817;117360;-75
2023/04/22 08:18:52;;;;;;;4.67;3.30;;;18.80;46.70;;;;;;20794;6815;120531;-76
2023/04/22 08:21:18;;;;;;;4.37;4.07;;;18.70;47.80;;;;;;20787;6816;116882;-75
2023/04/22 08:23:44;;;;;;;6.87;3.43;;;18.70;47.80;;;;;;20792;6816;116925;-76
2023/04/22 08:26:13;;;;;;;4.53;4.20;;;18.70;48.30;;;;;;20625;6816;329936;-75
2023/04/22 08:28:35;;;;;;;3.30;3.20;;;19.00;46.60;;;;;;20798;6817;117111;-76
2023/04/22 08:31:01;;;;;;;3.87;3.57;;;19.30;47.50;;;;;;20602;6817;285031;-74
2023/04/22 08:33:27;;;;;;;5.45;5.05;;;20.00;45.70;;;;;;20815;6817;117189;-75
2023/04/22 08:35:53;;;;;;;2.97;2.87;;;20.00;46.40;;;;;;20786;6817;123005;-75
2023/04/22 08:38:18;;;;;;;3.57;3.37;;;20.10;46.20;;;;;;20816;6817;117314;-78
2023/04/22 08:40:44;;;;;;;2.80;2.62;;;20.10;46.10;;;;;;20592;6817;277657;-78
2023/04/22 08:43:10;;;;;;;2.83;2.62;;;20.50;42.60;;;;;;20818;6817;71814;-75
2023/04/22 08:45:39;;;;;;;3.50;2.33;;;20.50;42.60;;;;;;20801;6817;117152;-75
2023/04/22 08:48:05;;;;;;;2.80;2.60;;;20.40;43.40;;;;;;20799;6817;121596;-77
2023/04/22 08:50:31;;;;;;;2.90;2.80;;;20.40;43.40;;;;;;20586;6817;310070;-76
2023/04/22 08:52:56;;;;;;;2.92;2.70;;;20.60;40.20;;;;;;20587;6817;307033;-76
2023/04/22 08:55:23;;;;;;;3.00;2.80;;;21.10;41.60;;;;;;20799;6817;117603;-77
2023/04/22 08:57:49;;;;;;;2.70;2.50;;;21.10;41.60;;;;;;20786;6817;127437;-78
2023/04/22 09:00:15;;;;;;;3.00;2.80;;;21.20;39.80;;;;;;20593;6817;310579;-78
2023/04/22 09:02:43;;;;;;;2.70;2.60;;;21.20;39.80;;;;;;20558;6817;277895;-78
2023/04/22 09:05:07;;;;;;;2.53;2.33;;;21.70;41.20;;;;;;20798;6817;117137;-77
2023/04/22 09:07:35;;;;;;;2.67;2.23;;;21.70;40.40;;;;;;20777;6817;117373;-77
2023/04/22 09:10:00;;;;;;;2.28;2.17;;;21.70;39.30;;;;;;20555;6817;337236;-78
2023/04/22 09:12:26;;;;;;;2.20;2.00;;;21.70;38.60;;;;;;20788;6817;117147;-75
2023/04/22 09:14:51;;;;;;;1.77;1.62;;;21.80;39.80;;;;;;20797;6817;117968;-81
2023/04/22 09:17:18;;;;;;;2.00;1.75;;;21.80;40.50;;;;;;20798;6817;117144;-78
2023/04/22 09:19:45;;;;;;;2.00;1.90;;;21.70;41.00;;;;;;20563;6817;277496;-77
2023/04/22 09:22:13;;;;;;;2.30;2.10;;;22.00;37.30;;;;;;20786;6817;117327;-75
2023/04/22 09:24:36;;;;;;;2.00;1.90;;;22.20;38.80;;;;;;20587;6817;341430;-76
2023/04/22 09:27:04;;;;;;;2.00;1.90;;;22.50;37.80;;;;;;20821;6817;117573;-75
2023/04/22 09:29:30;;;;;;;2.40;1.93;;;22.50;37.80;;;;;;20786;6815;118310;-75
2023/04/22 09:31:55;;;;;;;2.40;2.20;;;22.40;38.90;;;;;;20795;6816;120989;-75
2023/04/22 09:34:21;;;;;;;2.10;2.00;;;22.50;37.20;;;;;;20596;6816;276968;-74
2023/04/22 09:36:48;;;;;;;2.40;2.20;;;22.40;37.10;;;;;;20769;6816;117504;-74
2023/04/22 09:39:13;;;;;;;2.00;1.90;;;22.80;36.50;;;;;;20571;6816;307032;-74
2023/04/22 09:41:39;;;;;;;2.83;1.90;;;22.80;36.50;;;;;;20783;6817;117227;-74
2023/04/22 09:44:08;;;;;;;2.10;1.90;;;23.30;35.90;;;;;;20581;6817;337324;-74
2023/04/22 09:46:34;;;;;;;2.00;1.90;;;23.30;35.90;;;;;;20463;6817;307292;-75
2023/04/22 09:48:59;;;;;;;1.57;1.53;;;23.70;35.20;;;;;;20809;6817;117019;-75
2023/04/22 09:51:26;;;;;;;1.80;1.70;;;23.80;36.10;;;;;;20590;6817;306990;-76
2023/04/22 09:54:05;;;;;;;2.03;1.93;;;23.90;34.90;;;;;;20797;6817;117493;-77
2023/04/22 09:56:49;;;;;;;2.60;2.40;;;23.90;36.30;;;;;;20809;6817;117078;-75
2023/04/22 09:59:25;;;;;;;3.07;2.40;;;23.70;37.30;;;;;;20576;6817;306926;-77
2023/04/22 10:01:50;;;;;;;1.80;1.70;;;24.00;35.50;;;;;;20550;6817;306453;-76
2023/04/22 10:04:20;;;;;;;2.70;2.00;;;24.30;34.50;;;;;;20573;6817;306679;-76
2023/04/22 10:06:45;;;;;;;1.30;1.20;;;24.60;34.30;;;;;;20570;6817;306594;-80
2023/04/22 10:09:11;;;;;;;1.40;1.37;;;24.80;30.60;;;;;;20590;6817;282028;-75
2023/04/22 10:11:36;;;;;;;1.30;1.30;;;25.00;30.30;;;;;;20590;6817;340127;-75
2023/04/22 10:14:01;;;;;;;1.50;1.50;;;25.20;30.30;;;;;;20796;6817;118012;-74
2023/04/22 10:16:26;;;;;;;1.60;1.50;;;25.10;32.30;;;;;;20573;6817;277402;-74
2023/04/22 10:18:54;;;;;;;2.00;1.30;;;25.10;30.20;;;;;;20585;6817;311093;-74
2023/04/22 10:21:19;;;;;;;1.50;1.40;;;25.20;30.70;;;;;;20806;6817;117194;-74
2023/04/22 10:23:45;;;;;;;2.17;1.60;;;25.10;32.20;;;;;;20773;6817;117472;-74
2023/04/22 10:26:10;;;;;;;1.90;1.40;;;24.90;33.30;;;;;;20577;6817;277185;-74
2023/04/22 10:28:36;;;;;;;1.37;1.37;;;25.00;31.60;;;;;;20578;6817;310548;-74
2023/04/22 10:31:02;;;;;;;1.57;1.47;;;25.40;29.40;;;;;;20555;6817;296799;-74
2023/04/22 10:33:30;;;;;;;1.30;1.30;;;25.40;29.40;;;;;;20791;6817;121033;-74
2023/04/22 10:36:13;;;;;;;1.65;1.55;;;25.40;31.20;;;;;;20562;6817;336562;-76
2023/04/22 10:38:49;;;;;;;1.30;1.20;;;25.30;29.40;;;;;;20810;6817;117241;-74
2023/04/22 10:41:14;;;;;;;1.90;1.65;;;25.10;31.10;;;;;;20593;6815;278362;-73
2023/04/22 10:43:43;;;;;;;1.60;1.60;;;25.20;30.00;;;;;;20786;6816;119996;-74
2023/04/22 10:46:44;;;;;;;1.60;1.50;;;25.10;31.60;;;;;;20587;6816;278840;-74
2023/04/22 10:48:57;;;;;;;1.90;1.50;;;25.20;30.00;;;;;;20714;6816;117577;-74
2023/04/22 10:51:43;;;;;;;1.60;1.50;;;25.10;31.80;;;;;;20592;6817;339413;-74
2023/04/22 10:54:25;;;;;;;1.70;1.37;;;25.20;29.30;;;;;;20598;6817;306945;-74
2023/04/22 10:57:10;;;;;;;2.67;1.40;;;25.40;28.70;;;;;;20814;6817;117024;-74
2023/04/22 10:59:47;;;;;;;18.23;3.33;;;25.40;27.80;;;;;;20600;6817;307325;-74
2023/04/22 11:02:12;;;;;;;1.60;1.50;;;25.40;27.80;;;;;;20790;6817;117808;-73
2023/04/22 11:04:38;;;;;;;1.70;1.60;;;25.20;29.60;;;;;;20587;6817;335999;-73
2023/04/22 11:07:17;;;;;;;3.10;1.70;;;25.30;29.10;;;;;;20596;6817;306952;-74
2023/04/22 11:09:42;;;;;;;1.83;1.50;;;25.60;28.00;;;;;;20568;6817;306897;-77
2023/04/22 11:12:37;;;;;;;1.93;1.40;;;25.80;28.60;;;;;;20767;6817;117225;-79
2023/04/22 11:15:00;;;;;;;1.83;1.58;;;25.80;29.80;;;;;;19878;6817;277862;-78
2023/04/22 11:17:26;;;;;;;1.50;1.40;;;25.90;29.00;;;;;;20803;6817;117283;-75
2023/04/22 11:19:55;;;;;;;3.50;1.90;;;25.80;29.90;;;;;;20579;6817;306900;-77
2023/04/22 11:22:17;;;;;;;1.60;1.50;;;25.80;26.80;;;;;;20802;6817;118485;-76
2023/04/22 11:24:43;;;;;;;3.70;1.50;;;25.60;29.80;;;;;;20811;6817;117081;-76
2023/04/22 11:27:09;;;;;;;11.67;1.93;;;25.60;29.70;;;;;;20768;6817;117337;-76
2023/04/22 11:29:34;;;;;;;5.97;2.43;;;25.40;30.30;;;;;;20811;6817;117218;-76
2023/04/22 11:32:00;;;;;;;2.15;1.80;;;25.20;30.80;;;;;;20581;6817;295043;-76
2023/04/22 11:34:26;;;;;;;1.95;1.85;;;25.30;27.70;;;;;;20799;6817;117760;-76
2023/04/22 11:36:51;;;;;;;7.40;6.83;;;25.40;28.90;;;;;;20598;6817;278045;-76
2023/04/22 11:39:19;;;;;;;5.93;5.27;;;25.50;28.60;;;;;;20811;6817;117034;-75
2023/04/22 11:41:44;;;;;;;2.57;2.40;;;25.50;29.40;;;;;;20794;6817;118111;-76
2023/04/22 11:44:09;;;;;;;2.30;1.75;;;25.40;30.00;;;;;;20596;6817;309228;-76
2023/04/22 11:46:39;;;;;;;2.08;1.70;;;25.50;28.70;;;;;;20570;6817;308092;-77
2023/04/22 11:49:14;;;;;;;4.50;1.60;;;25.80;28.70;;;;;;20805;6817;120537;-78
2023/04/22 11:51:55;;;;;;;2.10;2.00;;;25.70;30.60;;;;;;20779;6815;124665;-75
2023/04/22 11:54:34;;;;;;;2.70;1.93;;;25.60;30.50;;;;;;20597;6816;286349;-75
2023/04/22 11:57:04;;;;;;;5.20;2.10;;;25.80;29.50;;;;;;20604;6816;290764;-77
2023/04/22 11:59:30;;;;;;;2.73;1.80;;;26.00;28.70;;;;;;20608;6816;278077;-77
2023/04/22 12:01:56;;;;;;;2.20;2.10;;;26.20;28.20;;;;;;20803;6816;120872;-80
2023/04/22 12:04:21;;;;;;;2.20;2.00;;;26.00;28.80;;;;;;20804;6817;117358;-77
2023/04/22 12:06:48;;;;;;;1.90;1.80;;;25.50;28.50;;;;;;20574;6817;340485;-72
2023/04/22 12:09:13;;;;;;;2.20;2.00;;;25.50;28.40;;;;;;20564;6817;282217;-75
2023/04/22 12:11:39;;;;;;;4.13;1.93;;;25.60;28.00;;;;;;20813;6817;118004;-76
2023/04/22 12:14:06;;;;;;;2.20;2.00;;;25.40;29.20;;;;;;20668;6817;117992;-74
2023/04/22 12:16:41;;;;;;;3.20;2.50;;;25.10;29.90;;;;;;20605;6817;306529;-74
2023/04/22 12:19:06;;;;;;;1.80;1.70;;;25.10;29.40;;;;;;20599;6817;277528;-73
2023/04/22 12:21:32;;;;;;;1.87;1.77;;;25.40;29.60;;;;;;20810;6817;117798;-75
2023/04/22 12:23:59;;;;;;;2.40;2.00;;;25.50;30.20;;;;;;20576;6817;308577;-75
2023/04/22 12:26:26;;;;;;;2.60;1.87;;;25.60;29.30;;;;;;20799;6817;117375;-76
2023/04/22 12:28:56;;;;;;;2.00;1.90;;;25.60;30.10;;;;;;20812;6817;117194;-80
2023/04/22 12:31:21;;;;;;;2.50;2.30;;;25.40;30.80;;;;;;20592;6817;307917;-76